Time;durP1;ratioP1;P1;durP2;ratioP2;P2;SDS_P1;SDS_P2;PMS_P1;PMS_P2;Temp;Humidity;BMP_temperature;BMP_pressure;BME280_temperature;BME280_humidity;BME280_pressure;Samples;Min_cycle;Max_cycle;Signal;HPM_P1;HPM_P2
2021/01/09 00:00:15;;;;;;;13.30;11.30;;;4.00;99.90;;;;;;5017293;28;20451;-59
2021/01/09 00:02:41;;;;;;;13.93;11.37;;;4.00;99.90;;;;;;5018264;28;20188;-59
2021/01/09 00:05:08;;;;;;;13.77;11.40;;;3.90;99.90;;;;;;5017151;28;20483;-59
2021/01/09 00:07:35;;;;;;;14.73;11.63;;;3.70;99.90;;;;;;5016742;28;20498;-60
2021/01/09 00:10:04;;;;;;;11.70;10.50;;;3.80;99.90;;;;;;5015612;28;20998;-59
2021/01/09 00:12:29;;;;;;;13.07;11.67;;;3.80;99.90;;;;;;5015073;28;20418;-59
2021/01/09 00:14:55;;;;;;;14.13;12.43;;;3.80;99.90;;;;;;5015536;28;20447;-59
2021/01/09 00:17:21;;;;;;;14.67;12.70;;;4.00;99.90;;;;;;5016355;28;20218;-59
2021/01/09 00:19:46;;;;;;;14.73;12.43;;;4.10;99.90;;;;;;5018883;28;20270;-59
2021/01/09 00:22:12;;;;;;;13.37;11.13;;;4.20;99.90;;;;;;5015337;28;20169;-59
2021/01/09 00:24:38;;;;;;;13.00;11.60;;;4.20;99.90;;;;;;5014999;28;20202;-59
2021/01/09 00:27:11;;;;;;;13.20;11.77;;;4.20;99.90;;;;;;5015675;28;20543;-61
2021/01/09 00:29:39;;;;;;;16.13;11.77;;;4.30;99.90;;;;;;5015199;28;20427;-60
2021/01/09 00:32:05;;;;;;;15.93;12.83;;;4.40;99.90;;;;;;5015636;28;20410;-61
2021/01/09 00:34:30;;;;;;;15.30;12.90;;;4.40;99.90;;;;;;5014110;28;20423;-60
2021/01/09 00:36:56;;;;;;;17.40;12.50;;;4.40;99.90;;;;;;5015376;28;20175;-59
2021/01/09 00:39:21;;;;;;;12.83;11.50;;;4.30;99.90;;;;;;5014762;28;20274;-59
2021/01/09 00:41:47;;;;;;;15.90;12.63;;;4.10;99.90;;;;;;4997493;28;20172;-60
2021/01/09 00:44:13;;;;;;;14.20;12.23;;;4.10;99.90;;;;;;5014162;28;20263;-61
2021/01/09 00:46:38;;;;;;;14.10;11.87;;;4.10;99.90;;;;;;5014731;28;20172;-60
2021/01/09 00:49:04;;;;;;;13.90;12.40;;;4.20;99.90;;;;;;5014935;28;20196;-61
2021/01/09 00:51:30;;;;;;;14.70;12.80;;;4.30;99.90;;;;;;5015367;28;20200;-60
2021/01/09 00:53:55;;;;;;;13.33;11.47;;;4.40;99.90;;;;;;5015213;28;20179;-60
2021/01/09 00:56:21;;;;;;;14.43;12.83;;;4.30;99.90;;;;;;5014283;28;20180;-61
2021/01/09 00:58:47;;;;;;;14.30;11.93;;;4.40;99.90;;;;;;5015087;28;20164;-61
2021/01/09 01:01:13;;;;;;;15.97;13.00;;;4.50;99.90;;;;;;5015023;28;20259;-61
2021/01/09 01:03:39;;;;;;;14.03;12.47;;;4.50;99.90;;;;;;5014702;28;20557;-61
2021/01/09 01:06:06;;;;;;;14.87;11.90;;;4.40;99.90;;;;;;5014549;28;20230;-60
2021/01/09 01:08:32;;;;;;;13.47;12.07;;;4.30;99.90;;;;;;5013405;28;20496;-60
2021/01/09 01:10:57;;;;;;;14.40;12.30;;;4.30;99.90;;;;;;5014816;28;21023;-60
2021/01/09 01:13:23;;;;;;;13.43;11.93;;;4.20;99.90;;;;;;5014948;28;20418;-60
2021/01/09 01:15:50;;;;;;;16.63;11.77;;;4.20;99.90;;;;;;5015687;28;20283;-59
2021/01/09 01:18:20;;;;;;;14.67;12.57;;;4.20;99.90;;;;;;5014251;28;20436;-60
2021/01/09 01:20:45;;;;;;;13.80;12.40;;;4.20;99.90;;;;;;5015082;28;20510;-60
2021/01/09 01:23:11;;;;;;;15.40;13.20;;;4.20;99.90;;;;;;5014372;28;20463;-59
2021/01/09 01:25:36;;;;;;;13.93;12.33;;;4.30;99.90;;;;;;5015290;28;20168;-60
2021/01/09 01:28:02;;;;;;;14.10;12.60;;;4.20;99.90;;;;;;5014823;28;20250;-61
2021/01/09 01:30:28;;;;;;;14.90;12.47;;;4.20;99.90;;;;;;5014386;28;20231;-61
2021/01/09 01:32:53;;;;;;;14.60;13.10;;;4.20;99.90;;;;;;5014061;28;20172;-61
2021/01/09 01:35:19;;;;;;;14.83;13.10;;;4.20;99.90;;;;;;5014232;28;20633;-60
2021/01/09 01:37:44;;;;;;;15.03;13.10;;;4.30;99.90;;;;;;5013958;28;20218;-60
2021/01/09 01:40:10;;;;;;;18.20;14.10;;;4.30;99.90;;;;;;5014383;28;20199;-60
2021/01/09 01:42:36;;;;;;;13.93;12.13;;;4.10;99.90;;;;;;5014485;28;20175;-60
2021/01/09 01:45:02;;;;;;;14.87;12.70;;;4.10;99.90;;;;;;5013170;28;20427;-60
2021/01/09 01:47:28;;;;;;;17.83;13.40;;;4.00;99.90;;;;;;5014085;28;20187;-60
2021/01/09 01:49:54;;;;;;;16.00;13.60;;;4.10;99.90;;;;;;5013831;28;20835;-60
2021/01/09 01:52:20;;;;;;;14.47;12.90;;;4.00;99.90;;;;;;5013468;28;20434;-60
2021/01/09 01:54:47;;;;;;;16.97;12.40;;;4.00;99.90;;;;;;5014053;28;20411;-59
2021/01/09 01:57:13;;;;;;;16.77;13.33;;;3.90;99.90;;;;;;5014293;28;20174;-67
2021/01/09 01:59:39;;;;;;;16.43;13.90;;;3.90;99.90;;;;;;5014181;28;20506;-60
2021/01/09 02:02:08;;;;;;;16.20;13.97;;;3.90;99.90;;;;;;5013575;28;20175;-62
2021/01/09 02:04:34;;;;;;;17.17;14.00;;;3.70;99.90;;;;;;5013996;28;20413;-60
2021/01/09 02:07:08;;;;;;;14.10;12.60;;;3.80;99.90;;;;;;5013659;28;20407;-60
2021/01/09 02:09:40;;;;;;;15.77;13.73;;;3.90;99.90;;;;;;5013824;28;20430;-61
2021/01/09 02:12:15;;;;;;;18.17;15.40;;;4.00;99.90;;;;;;5014023;28;20749;-60
2021/01/09 02:14:48;;;;;;;17.87;14.90;;;4.00;99.90;;;;;;5013980;28;20410;-60
2021/01/09 02:17:15;;;;;;;17.90;15.80;;;4.00;99.90;;;;;;5016054;28;20900;-60
2021/01/09 02:19:43;;;;;;;16.70;13.33;;;3.70;99.90;;;;;;5012541;28;20446;-60
2021/01/09 02:22:18;;;;;;;19.10;15.37;;;3.90;99.90;;;;;;5014084;28;20411;-62
2021/01/09 02:24:46;;;;;;;19.03;15.23;;;3.90;99.90;;;;;;5013105;28;20426;-59
2021/01/09 02:27:12;;;;;;;17.70;14.70;;;3.90;99.90;;;;;;5013509;28;20403;-58
2021/01/09 02:29:51;;;;;;;17.50;14.60;;;4.10;99.90;;;;;;5013450;28;20477;-60
2021/01/09 02:32:18;;;;;;;15.87;14.23;;;4.10;99.90;;;;;;5013230;28;20399;-60
2021/01/09 02:34:44;;;;;;;17.10;14.67;;;4.10;99.90;;;;;;5013278;28;20407;-59
2021/01/09 02:37:10;;;;;;;18.87;14.97;;;4.00;99.90;;;;;;5013695;28;20414;-60
2021/01/09 02:39:36;;;;;;;19.70;15.50;;;4.10;99.90;;;;;;5013665;28;20187;-60
2021/01/09 02:42:03;;;;;;;17.03;15.20;;;4.20;99.90;;;;;;5013295;28;20434;-61
2021/01/09 02:44:30;;;;;;;16.63;14.83;;;4.10;99.90;;;;;;5012507;28;20489;-59
2021/01/09 02:46:56;;;;;;;18.33;14.97;;;4.20;99.90;;;;;;5013303;28;20884;-60
2021/01/09 02:49:21;;;;;;;19.13;16.10;;;4.00;99.90;;;;;;5011992;28;20541;-58
2021/01/09 02:51:47;;;;;;;17.60;14.07;;;4.00;99.90;;;;;;5015207;28;20458;-59
2021/01/09 02:54:13;;;;;;;18.63;15.23;;;3.80;99.90;;;;;;5012422;28;20264;-58
2021/01/09 02:56:38;;;;;;;20.57;16.20;;;3.80;99.90;;;;;;5013622;28;20235;-60
2021/01/09 02:59:04;;;;;;;17.50;15.50;;;3.80;99.90;;;;;;5013150;28;20180;-60
2021/01/09 03:01:30;;;;;;;18.47;14.57;;;3.80;99.90;;;;;;5013095;28;20668;-60
2021/01/09 03:03:57;;;;;;;20.13;16.90;;;3.90;99.90;;;;;;5011983;28;20187;-60
2021/01/09 03:06:23;;;;;;;22.17;18.13;;;4.00;99.90;;;;;;5015673;28;20407;-60
2021/01/09 03:08:49;;;;;;;22.57;17.77;;;4.10;99.90;;;;;;5016961;28;20446;-62
2021/01/09 03:11:15;;;;;;;19.07;15.13;;;4.00;99.90;;;;;;5017052;28;20493;-60
2021/01/09 03:13:42;;;;;;;20.70;16.30;;;4.00;99.90;;;;;;5015635;28;20190;-60
2021/01/09 03:16:07;;;;;;;19.33;17.27;;;3.90;99.90;;;;;;5016941;28;20434;-58
2021/01/09 03:18:33;;;;;;;21.13;17.40;;;3.90;99.90;;;;;;5016714;28;20438;-59
2021/01/09 03:20:59;;;;;;;17.13;14.40;;;3.80;99.90;;;;;;5016643;28;20246;-58
2021/01/09 03:23:24;;;;;;;19.00;16.30;;;3.80;99.90;;;;;;5015677;28;20176;-59
2021/01/09 03:25:50;;;;;;;20.37;16.23;;;3.90;99.90;;;;;;5016777;28;20183;-59
2021/01/09 03:28:15;;;;;;;19.30;16.50;;;3.60;99.90;;;;;;5016688;28;20184;-60
2021/01/09 03:30:41;;;;;;;18.50;15.47;;;3.60;99.90;;;;;;5017412;28;20199;-60
2021/01/09 03:33:06;;;;;;;21.47;16.20;;;3.70;99.90;;;;;;5018379;28;20168;-60
2021/01/09 03:35:32;;;;;;;19.07;15.40;;;3.60;99.90;;;;;;5016928;28;20172;-59
2021/01/09 03:37:58;;;;;;;19.30;15.27;;;3.70;99.90;;;;;;4981592;28;20183;-59
2021/01/09 03:40:23;;;;;;;22.30;16.50;;;3.70;99.90;;;;;;5016382;28;20206;-59
2021/01/09 03:42:49;;;;;;;20.90;16.23;;;3.70;99.90;;;;;;5016295;28;20263;-59
2021/01/09 03:45:14;;;;;;;20.20;14.97;;;3.80;99.90;;;;;;5016137;28;20605;-59
2021/01/09 03:47:40;;;;;;;20.37;16.47;;;3.70;99.90;;;;;;5016855;28;20176;-59
2021/01/09 03:50:06;;;;;;;22.40;18.97;;;3.70;99.90;;;;;;5016268;28;20219;-60
2021/01/09 03:52:32;;;;;;;20.97;17.30;;;3.80;99.90;;;;;;5015764;28;20176;-60
2021/01/09 03:54:57;;;;;;;22.20;17.47;;;4.00;99.90;;;;;;5015822;28;20506;-60
2021/01/09 03:57:23;;;;;;;19.17;16.13;;;3.90;99.90;;;;;;5015382;28;20172;-61
2021/01/09 03:59:49;;;;;;;23.10;18.13;;;3.90;99.90;;;;;;5015825;28;20199;-60
2021/01/09 04:02:15;;;;;;;21.40;16.30;;;4.00;99.90;;;;;;5016018;28;20176;-60
2021/01/09 04:04:41;;;;;;;19.23;15.40;;;4.10;99.90;;;;;;5014628;28;20434;-60
2021/01/09 04:07:07;;;;;;;22.47;18.00;;;4.00;99.90;;;;;;5015863;28;20919;-60
2021/01/09 04:09:32;;;;;;;20.33;16.23;;;4.00;99.90;;;;;;5014962;28;20814;-60
2021/01/09 04:11:58;;;;;;;24.60;17.90;;;4.00;99.90;;;;;;5016239;28;20208;-60
2021/01/09 04:14:24;;;;;;;21.43;17.53;;;4.20;99.90;;;;;;5016915;28;20177;-59
2021/01/09 04:16:49;;;;;;;22.73;17.80;;;4.00;99.90;;;;;;5017467;28;20175;-59
2021/01/09 04:19:15;;;;;;;23.43;17.83;;;4.00;99.90;;;;;;5037074;28;20257;-59
2021/01/09 04:21:45;;;;;;;22.37;17.37;;;3.90;99.90;;;;;;5038215;28;20182;-60
2021/01/09 04:24:11;;;;;;;25.53;19.30;;;3.80;99.90;;;;;;5036947;28;20179;-60
2021/01/09 04:26:37;;;;;;;24.93;19.20;;;3.80;99.90;;;;;;5037462;28;20409;-60
2021/01/09 04:29:03;;;;;;;23.10;18.17;;;3.90;99.90;;;;;;5036472;28;20899;-59
2021/01/09 04:31:29;;;;;;;24.13;18.63;;;3.80;99.90;;;;;;5035013;28;20580;-60
2021/01/09 04:33:54;;;;;;;25.30;20.97;;;4.00;99.90;;;;;;5035284;28;20164;-60
2021/01/09 04:36:20;;;;;;;21.83;16.87;;;4.00;99.90;;;;;;5035418;28;20225;-59
2021/01/09 04:38:45;;;;;;;23.13;20.47;;;3.90;99.90;;;;;;5022073;28;20184;-59
2021/01/09 04:41:11;;;;;;;27.20;21.17;;;4.10;99.90;;;;;;5015249;28;20192;-59
2021/01/09 04:43:37;;;;;;;25.90;21.10;;;4.00;99.90;;;;;;5015120;28;20563;-59
2021/01/09 04:46:03;;;;;;;23.73;20.00;;;4.10;99.90;;;;;;5015550;28;20411;-60
2021/01/09 04:48:30;;;;;;;24.67;20.90;;;4.10;99.90;;;;;;5015811;28;20188;-58
2021/01/09 04:50:56;;;;;;;23.90;18.30;;;4.00;99.90;;;;;;5015959;28;20824;-58
2021/01/09 04:53:23;;;;;;;24.80;20.60;;;4.10;99.90;;;;;;4997650;28;20502;-59
2021/01/09 04:55:52;;;;;;;24.20;18.70;;;4.20;99.90;;;;;;5015193;28;20551;-58
2021/01/09 04:58:18;;;;;;;23.60;19.60;;;4.20;99.90;;;;;;5014881;28;20407;-60
2021/01/09 05:00:46;;;;;;;30.50;20.43;;;4.10;99.90;;;;;;5014909;28;20427;-60
2021/01/09 05:03:11;;;;;;;22.70;18.00;;;4.20;99.90;;;;;;5014902;28;20230;-59
2021/01/09 05:05:37;;;;;;;24.47;20.70;;;4.30;99.90;;;;;;5014614;28;20911;-60
2021/01/09 05:08:03;;;;;;;24.70;21.00;;;4.10;99.90;;;;;;5014275;28;20707;-60
2021/01/09 05:10:34;;;;;;;25.53;20.80;;;4.00;99.90;;;;;;5014381;28;20454;-60
2021/01/09 05:13:00;;;;;;;25.27;20.83;;;4.10;99.90;;;;;;5013411;28;20458;-60
2021/01/09 05:15:38;;;;;;;28.10;21.53;;;3.90;99.90;;;;;;5014740;28;20443;-60
2021/01/09 05:18:05;;;;;;;31.13;22.17;;;3.80;99.90;;;;;;5014480;28;20171;-60
2021/01/09 05:20:32;;;;;;;29.37;22.00;;;3.80;99.90;;;;;;5013795;28;20451;-60
2021/01/09 05:23:00;;;;;;;27.67;21.23;;;3.80;99.90;;;;;;5014508;28;20982;-59
2021/01/09 05:25:27;;;;;;;28.53;22.47;;;3.90;99.90;;;;;;5014283;28;20406;-60
2021/01/09 05:27:58;;;;;;;27.17;21.80;;;3.80;99.90;;;;;;5013162;28;20809;-60
2021/01/09 05:30:24;;;;;;;32.70;23.43;;;3.90;99.90;;;;;;5014185;28;20955;-60
2021/01/09 05:32:51;;;;;;;28.03;21.23;;;4.00;99.90;;;;;;5013252;28;20423;-60
2021/01/09 05:35:18;;;;;;;30.67;25.10;;;4.00;99.90;;;;;;5014130;28;20770;-59
2021/01/09 05:37:50;;;;;;;27.93;21.77;;;4.00;99.90;;;;;;5014131;28;20892;-60
2021/01/09 05:40:17;;;;;;;30.43;22.00;;;3.90;99.90;;;;;;5014464;28;20518;-59
2021/01/09 05:42:43;;;;;;;28.43;21.30;;;4.00;99.90;;;;;;5015964;28;20812;-58
2021/01/09 05:45:11;;;;;;;27.03;21.20;;;4.10;99.90;;;;;;5022439;28;20418;-57
2021/01/09 05:47:38;;;;;;;35.27;26.50;;;4.10;99.90;;;;;;5033569;28;20175;-62
2021/01/09 05:50:06;;;;;;;27.03;22.30;;;4.10;99.90;;;;;;5016724;28;20493;-58
2021/01/09 05:52:37;;;;;;;29.23;22.30;;;3.90;99.90;;;;;;5012984;28;20426;-60
2021/01/09 05:55:03;;;;;;;29.33;23.07;;;3.70;99.90;;;;;;5014282;28;20393;-59
2021/01/09 05:57:30;;;;;;;28.67;21.80;;;3.70;99.90;;;;;;5013754;28;20411;-59
2021/01/09 06:00:05;;;;;;;32.70;24.90;;;4.00;99.90;;;;;;5013886;28;20496;-59
2021/01/09 06:02:54;;;;;;;30.60;22.50;;;4.10;99.90;;;;;;5013687;28;20484;-58
2021/01/09 06:05:22;;;;;;;26.03;21.07;;;4.20;99.90;;;;;;5012754;28;20426;-59
2021/01/09 06:07:50;;;;;;;27.93;21.93;;;4.10;99.90;;;;;;5013750;28;20411;-59
2021/01/09 06:10:20;;;;;;;24.73;20.47;;;4.10;99.90;;;;;;5013617;28;20565;-60
2021/01/09 06:13:00;;;;;;;30.00;21.80;;;3.80;99.90;;;;;;5016477;28;20406;-58
2021/01/09 06:15:29;;;;;;;29.80;21.73;;;3.60;99.90;;;;;;5013929;28;20481;-59
2021/01/09 06:17:55;;;;;;;28.43;23.07;;;3.60;99.90;;;;;;5013016;28;20403;-60
2021/01/09 06:20:21;;;;;;;30.90;23.80;;;3.40;99.90;;;;;;5012992;28;20425;-60
2021/01/09 06:22:47;;;;;;;27.77;20.77;;;3.30;99.90;;;;;;4995917;28;20642;-60
2021/01/09 06:25:13;;;;;;;30.87;21.87;;;3.30;99.90;;;;;;5013106;28;20180;-60
2021/01/09 06:27:43;;;;;;;28.43;21.90;;;3.60;99.90;;;;;;5013241;28;20465;-60
2021/01/09 06:30:10;;;;;;;33.10;24.93;;;3.70;99.90;;;;;;5013736;28;20967;-60
2021/01/09 06:32:39;;;;;;;30.63;22.57;;;3.80;99.90;;;;;;5013840;28;20435;-59
2021/01/09 06:35:07;;;;;;;27.77;21.97;;;3.90;99.90;;;;;;5012397;28;20904;-59
2021/01/09 06:37:33;;;;;;;26.73;19.63;;;3.80;99.90;;;;;;5013397;28;20514;-59
2021/01/09 06:39:59;;;;;;;27.90;21.70;;;3.90;99.90;;;;;;5015901;28;20932;-59
2021/01/09 06:42:26;;;;;;;29.90;21.07;;;4.00;99.90;;;;;;5018217;28;20529;-58
2021/01/09 06:44:53;;;;;;;30.47;21.60;;;3.60;99.90;;;;;;5016406;28;20430;-61
2021/01/09 06:47:29;;;;;;;26.80;20.80;;;3.60;99.90;;;;;;4999904;28;20454;-60
2021/01/09 06:50:16;;;;;;;28.27;22.23;;;3.50;99.90;;;;;;5017624;28;20568;-59
2021/01/09 06:52:54;;;;;;;29.97;22.40;;;3.50;99.90;;;;;;5015952;28;20464;-58
2021/01/09 06:55:37;;;;;;;24.90;19.43;;;3.50;99.90;;;;;;5017337;28;20448;-60
2021/01/09 06:58:07;;;;;;;30.60;22.23;;;3.40;99.90;;;;;;5017332;28;20508;-59
2021/01/09 07:00:36;;;;;;;32.00;24.63;;;3.50;99.90;;;;;;5017320;28;20513;-59
2021/01/09 07:03:15;;;;;;;36.43;26.53;;;3.50;99.90;;;;;;5017219;28;20403;-60
2021/01/09 07:05:48;;;;;;;70.13;49.20;;;3.60;99.90;;;;;;5016156;28;20454;-60
2021/01/09 07:08:22;;;;;;;32.67;22.93;;;3.60;99.90;;;;;;5017085;28;20413;-60
2021/01/09 07:10:51;;;;;;;31.37;23.37;;;3.50;99.90;;;;;;5016900;28;20482;-59
2021/01/09 07:13:17;;;;;;;30.70;21.73;;;3.20;99.90;;;;;;5016869;28;20403;-60
2021/01/09 07:15:42;;;;;;;33.33;23.20;;;3.20;99.90;;;;;;5015525;28;20781;-59
2021/01/09 07:18:08;;;;;;;30.90;24.23;;;3.30;99.90;;;;;;5017000;28;20175;-61
2021/01/09 07:20:39;;;;;;;36.97;25.90;;;3.30;99.90;;;;;;5015774;28;21346;-59
2021/01/09 07:23:10;;;;;;;36.83;26.87;;;3.30;99.90;;;;;;5017027;28;20896;-59
2021/01/09 07:25:46;;;;;;;70.73;43.73;;;3.30;99.90;;;;;;5016653;28;20892;-60
2021/01/09 07:28:18;;;;;;;961.70;574.23;;;3.30;99.90;;;;;;5015166;28;20792;-61
2021/01/09 07:30:44;;;;;;;137.47;93.57;;;3.40;99.90;;;;;;5016607;28;20454;-62
2021/01/09 07:33:14;;;;;;;49.13;33.83;;;3.40;99.90;;;;;;5016792;28;20764;-60
2021/01/09 07:35:45;;;;;;;35.50;26.67;;;3.50;99.90;;;;;;4998677;28;20411;-60
2021/01/09 07:38:13;;;;;;;39.60;30.10;;;3.50;99.90;;;;;;5016587;28;20395;-60
2021/01/09 07:40:57;;;;;;;36.80;25.30;;;3.60;99.90;;;;;;5016454;28;20438;-61
2021/01/09 07:43:42;;;;;;;41.07;27.67;;;3.70;99.90;;;;;;5015265;28;20399;-60
2021/01/09 07:46:27;;;;;;;44.63;34.30;;;3.60;99.90;;;;;;5016317;28;20489;-60
2021/01/09 07:48:54;;;;;;;32.67;22.80;;;3.40;99.90;;;;;;5015990;28;20418;-60
2021/01/09 07:51:40;;;;;;;37.03;26.07;;;3.40;99.90;;;;;;5015382;28;20443;-59
2021/01/09 07:54:06;;;;;;;38.33;26.80;;;3.30;99.90;;;;;;5014727;28;20433;-60
2021/01/09 07:56:38;;;;;;;37.50;28.67;;;3.40;99.90;;;;;;5015933;28;20399;-59
2021/01/09 07:59:04;;;;;;;34.90;26.33;;;3.40;99.90;;;;;;5016488;28;20438;-59
2021/01/09 08:01:43;;;;;;;32.80;24.97;;;3.30;99.90;;;;;;5017532;28;20406;-59
2021/01/09 08:04:11;;;;;;;41.63;29.33;;;3.40;99.90;;;;;;5015302;28;20518;-59
2021/01/09 08:06:41;;;;;;;37.33;27.60;;;3.40;99.90;;;;;;5019903;28;20410;-60
2021/01/09 08:09:07;;;;;;;34.70;26.73;;;3.50;99.90;;;;;;5016602;28;20414;-60
2021/01/09 08:11:44;;;;;;;29.00;22.43;;;3.20;99.90;;;;;;5014630;28;20466;-61
2021/01/09 08:14:10;;;;;;;34.23;25.53;;;3.30;99.90;;;;;;5016026;28;20517;-60
2021/01/09 08:16:36;;;;;;;31.97;23.07;;;3.20;99.90;;;;;;5015647;28;20415;-59
2021/01/09 08:19:23;;;;;;;28.67;22.53;;;3.10;99.90;;;;;;5015615;28;20399;-60
2021/01/09 08:21:52;;;;;;;44.63;33.00;;;3.30;99.90;;;;;;4997988;28;20172;-60
2021/01/09 08:24:25;;;;;;;33.80;24.70;;;3.10;99.90;;;;;;5016448;28;20407;-60
2021/01/09 08:26:52;;;;;;;36.17;25.87;;;3.10;99.90;;;;;;5014916;28;20930;-60
2021/01/09 08:29:20;;;;;;;35.47;26.77;;;3.40;99.90;;;;;;5015759;28;20427;-62
2021/01/09 08:31:50;;;;;;;35.07;26.17;;;3.60;99.90;;;;;;4997820;28;20450;-61
2021/01/09 08:34:19;;;;;;;36.23;26.50;;;3.70;99.90;;;;;;5014116;28;20454;-62
2021/01/09 08:36:46;;;;;;;35.53;24.47;;;3.80;99.90;;;;;;5025256;28;20468;-62
2021/01/09 08:39:12;;;;;;;37.20;25.80;;;3.90;99.90;;;;;;5021236;28;20450;-61
2021/01/09 08:41:39;;;;;;;32.80;25.20;;;3.90;99.90;;;;;;5015480;28;20764;-61
2021/01/09 08:44:09;;;;;;;36.67;25.30;;;3.90;99.90;;;;;;5015194;28;20186;-61
2021/01/09 08:46:39;;;;;;;35.50;24.97;;;3.70;99.90;;;;;;4998434;28;20898;-59
2021/01/09 08:49:05;;;;;;;36.83;28.70;;;3.60;99.90;;;;;;5016330;28;20488;-64
2021/01/09 08:51:33;;;;;;;41.90;28.27;;;3.60;99.90;;;;;;5015194;28;20450;-60
2021/01/09 08:54:07;;;;;;;39.87;28.63;;;3.50;99.90;;;;;;5014868;28;20496;-59
2021/01/09 08:56:34;;;;;;;38.60;27.50;;;3.50;99.90;;;;;;5014141;28;20426;-59
2021/01/09 08:59:04;;;;;;;43.60;29.70;;;3.40;99.90;;;;;;5014864;28;20403;-61
2021/01/09 09:01:56;;;;;;;46.23;28.97;;;3.40;99.90;;;;;;5015031;28;20920;-59
2021/01/09 09:04:22;;;;;;;37.60;26.47;;;3.30;99.90;;;;;;5014211;28;20414;-61
2021/01/09 09:06:53;;;;;;;42.30;28.40;;;3.40;99.90;;;;;;5014655;28;20403;-61
2021/01/09 09:09:19;;;;;;;35.23;26.43;;;3.20;99.90;;;;;;5002632;28;20537;-58
2021/01/09 09:11:54;;;;;;;34.53;25.77;;;3.20;99.90;;;;;;5022116;28;20558;-60
2021/01/09 09:14:21;;;;;;;46.83;30.77;;;3.20;99.90;;;;;;5013945;28;20176;-61
2021/01/09 09:16:57;;;;;;;41.43;27.57;;;3.30;99.90;;;;;;5014977;28;20399;-61
2021/01/09 09:19:23;;;;;;;37.97;28.23;;;3.40;99.90;;;;;;5014147;28;20472;-61
2021/01/09 09:21:56;;;;;;;35.30;26.23;;;3.30;99.90;;;;;;5014753;28;20433;-59
2021/01/09 09:24:45;;;;;;;38.10;26.60;;;2.90;99.90;;;;;;5014448;28;20156;-60
2021/01/09 09:27:32;;;;;;;36.30;25.37;;;3.00;99.90;;;;;;5013657;28;20441;-59
2021/01/09 09:30:08;;;;;;;36.67;27.40;;;3.30;99.90;;;;;;4996146;28;20517;-60
2021/01/09 09:32:34;;;;;;;36.20;25.47;;;3.30;99.90;;;;;;5014153;28;20395;-61
2021/01/09 09:35:21;;;;;;;43.57;26.87;;;3.40;99.90;;;;;;5014153;28;20780;-59
2021/01/09 09:37:47;;;;;;;35.40;24.10;;;3.30;99.90;;;;;;5021327;28;20882;-58
2021/01/09 09:40:23;;;;;;;36.33;25.50;;;3.30;99.90;;;;;;5023540;28;20446;-57
2021/01/09 09:42:49;;;;;;;38.87;25.97;;;3.40;99.90;;;;;;5022039;28;20422;-60
2021/01/09 09:45:16;;;;;;;36.53;24.90;;;3.60;99.90;;;;;;5022803;28;20481;-60
2021/01/09 09:47:48;;;;;;;31.53;24.77;;;3.60;99.90;;;;;;5019032;28;20176;-59
2021/01/09 09:50:21;;;;;;;33.47;24.87;;;3.50;99.90;;;;;;5020017;28;20526;-60
2021/01/09 09:53:00;;;;;;;30.97;22.33;;;3.50;99.90;;;;;;5020710;28;20411;-59
2021/01/09 09:55:26;;;;;;;31.00;23.10;;;3.50;99.90;;;;;;5019996;28;20438;-59
2021/01/09 09:58:06;;;;;;;33.40;23.37;;;3.40;99.90;;;;;;5021073;28;20420;-58
2021/01/09 10:00:31;;;;;;;31.03;22.00;;;3.60;99.90;;;;;;5019330;28;20565;-56
2021/01/09 10:02:57;;;;;;;34.47;24.00;;;3.60;99.90;;;;;;5019567;28;20441;-58
2021/01/09 10:05:24;;;;;;;28.80;23.03;;;3.50;99.90;;;;;;5019045;28;20172;-60
2021/01/09 10:07:50;;;;;;;34.20;22.43;;;3.20;99.90;;;;;;5017857;28;20267;-58
2021/01/09 10:10:17;;;;;;;30.17;23.13;;;3.10;99.90;;;;;;5018149;28;20481;-58
2021/01/09 10:12:54;;;;;;;29.40;22.40;;;3.00;99.90;;;;;;5017483;28;20439;-58
2021/01/09 10:15:20;;;;;;;32.17;22.87;;;3.10;99.90;;;;;;5015586;28;20454;-58
2021/01/09 10:17:50;;;;;;;29.97;23.20;;;3.20;99.90;;;;;;5017730;28;20426;-59
2021/01/09 10:20:15;;;;;;;27.00;20.90;;;3.30;99.90;;;;;;5016987;28;20196;-59
2021/01/09 10:22:41;;;;;;;27.40;20.70;;;3.30;99.90;;;;;;4999509;28;20793;-59
2021/01/09 10:25:07;;;;;;;26.93;20.43;;;3.30;99.90;;;;;;5017277;28;20598;-59
2021/01/09 10:27:33;;;;;;;28.73;21.37;;;3.50;99.90;;;;;;5018583;28;20175;-59
2021/01/09 10:29:59;;;;;;;28.00;20.70;;;3.70;99.90;;;;;;5017559;28;20499;-58
2021/01/09 10:32:24;;;;;;;25.20;18.73;;;3.70;99.90;;;;;;4999734;28;20176;-59
2021/01/09 10:34:50;;;;;;;28.33;21.17;;;3.40;99.90;;;;;;5016549;28;20176;-59
2021/01/09 10:37:15;;;;;;;25.33;19.77;;;3.30;99.90;;;;;;5017143;28;20198;-58
2021/01/09 10:39:41;;;;;;;28.90;21.23;;;3.10;99.90;;;;;;5017370;28;20561;-59
2021/01/09 10:42:06;;;;;;;28.57;20.80;;;3.30;99.90;;;;;;5016674;28;20199;-58
2021/01/09 10:44:32;;;;;;;26.83;21.30;;;3.20;99.90;;;;;;5015763;28;20656;-59
2021/01/09 10:46:58;;;;;;;25.60;18.17;;;3.20;99.90;;;;;;5017779;28;20274;-59
2021/01/09 10:49:23;;;;;;;24.23;18.80;;;3.30;99.90;;;;;;5018572;28;20215;-59
2021/01/09 10:51:49;;;;;;;24.40;18.70;;;3.60;99.90;;;;;;5017875;28;20207;-59
2021/01/09 10:54:15;;;;;;;24.70;18.33;;;3.80;99.90;;;;;;5019347;28;20172;-58
2021/01/09 10:56:45;;;;;;;24.87;18.20;;;4.00;99.90;;;;;;5017874;28;20514;-57
2021/01/09 10:59:11;;;;;;;23.73;18.10;;;3.90;99.90;;;;;;5016086;28;20447;-56
2021/01/09 11:01:37;;;;;;;31.10;20.87;;;4.10;99.90;;;;;;5017531;28;20426;-56
2021/01/09 11:04:03;;;;;;;26.73;18.03;;;3.80;99.90;;;;;;4999524;28;20431;-59
2021/01/09 11:06:28;;;;;;;27.83;19.13;;;3.90;99.90;;;;;;5019188;28;20180;-59
2021/01/09 11:08:54;;;;;;;26.80;19.90;;;4.00;99.90;;;;;;5017197;28;20687;-56
2021/01/09 11:11:20;;;;;;;24.70;19.50;;;4.10;99.90;;;;;;5016706;28;20195;-59
2021/01/09 11:13:46;;;;;;;23.40;18.60;;;4.30;99.90;;;;;;5017068;28;20182;-58
2021/01/09 11:16:17;;;;;;;28.07;19.83;;;4.20;99.90;;;;;;5019506;28;20161;-58
2021/01/09 11:18:42;;;;;;;24.87;18.40;;;4.50;99.90;;;;;;5017581;28;20391;-57
2021/01/09 11:21:08;;;;;;;23.87;18.10;;;4.60;99.90;;;;;;5017570;28;20430;-58
2021/01/09 11:23:33;;;;;;;20.93;16.00;;;4.40;99.90;;;;;;5018862;28;20200;-57
2021/01/09 11:25:59;;;;;;;27.50;18.30;;;4.40;99.90;;;;;;5019189;28;20171;-57
2021/01/09 11:28:25;;;;;;;24.30;17.97;;;4.00;99.90;;;;;;5022642;28;20195;-58
2021/01/09 11:30:50;;;;;;;22.07;16.77;;;3.80;99.90;;;;;;5030502;28;20199;-58
2021/01/09 11:33:16;;;;;;;15.57;12.43;;;3.80;99.90;;;;;;5021607;28;20191;-59
2021/01/09 11:35:41;;;;;;;17.57;13.07;;;3.90;99.90;;;;;;5021713;28;20168;-57
2021/01/09 11:38:07;;;;;;;18.50;13.97;;;4.50;99.90;;;;;;5020386;28;20251;-58
2021/01/09 11:40:33;;;;;;;16.27;12.97;;;5.00;99.90;;;;;;5004611;28;20263;-57
2021/01/09 11:42:58;;;;;;;13.10;10.97;;;5.90;99.90;;;;;;5018812;28;20710;-60
2021/01/09 11:45:24;;;;;;;13.17;11.17;;;5.90;99.90;;;;;;5014947;28;20283;-59
2021/01/09 11:47:50;;;;;;;14.10;12.40;;;5.50;99.90;;;;;;5016039;28;20251;-61
2021/01/09 11:50:17;;;;;;;15.80;13.27;;;5.20;99.90;;;;;;5021544;28;20561;-59
2021/01/09 11:52:43;;;;;;;15.60;12.87;;;5.00;99.90;;;;;;5020345;28;20458;-58
2021/01/09 11:55:09;;;;;;;13.10;11.67;;;4.80;99.90;;;;;;5023838;28;20418;-60
2021/01/09 11:57:35;;;;;;;13.40;10.60;;;4.60;99.90;;;;;;5021540;28;20171;-57
2021/01/09 12:00:02;;;;;;;12.63;10.60;;;4.90;99.90;;;;;;5021276;28;20775;-56
2021/01/09 12:02:28;;;;;;;13.37;10.70;;;6.30;99.90;;;;;;5021398;28;20165;-59
2021/01/09 12:04:53;;;;;;;13.20;10.60;;;7.30;99.90;;;;;;5020478;28;20426;-59
2021/01/09 12:07:19;;;;;;;13.73;11.87;;;7.50;99.90;;;;;;5020856;28;20169;-58
2021/01/09 12:09:45;;;;;;;11.20;9.90;;;7.30;99.90;;;;;;5021603;28;20191;-59
2021/01/09 12:12:10;;;;;;;10.80;9.33;;;7.50;99.90;;;;;;5021188;28;20192;-57
2021/01/09 12:14:36;;;;;;;11.73;9.90;;;8.40;99.90;;;;;;5020761;28;20229;-60
2021/01/09 12:17:02;;;;;;;12.20;10.57;;;8.60;98.40;;;;;;5020673;28;20168;-59
2021/01/09 12:19:28;;;;;;;12.30;10.43;;;7.80;98.70;;;;;;5019694;28;20225;-60
2021/01/09 12:21:57;;;;;;;13.17;10.17;;;7.80;99.80;;;;;;5020937;28;20432;-57
2021/01/09 12:24:23;;;;;;;12.60;10.67;;;7.10;99.90;;;;;;5003707;28;20176;-59
2021/01/09 12:26:53;;;;;;;14.80;11.00;;;6.20;99.90;;;;;;5021859;28;20776;-59
2021/01/09 12:29:20;;;;;;;12.33;10.10;;;5.50;99.90;;;;;;5021381;28;20595;-59
2021/01/09 12:31:46;;;;;;;14.07;11.13;;;6.30;99.90;;;;;;5021066;28;20482;-59
2021/01/09 12:34:12;;;;;;;12.57;10.67;;;6.90;99.90;;;;;;5019935;28;20431;-60
2021/01/09 12:36:38;;;;;;;12.90;10.30;;;5.90;99.90;;;;;;5020871;28;20172;-58
2021/01/09 12:39:04;;;;;;;11.63;9.00;;;5.30;99.90;;;;;;5021165;28;20483;-59